createdAt,value
2018-08-22T00:01:37.757Z,56.96
2018-08-22T00:04:06.157Z,56.73
2018-08-22T00:06:34.294Z,56.44
2018-08-22T00:09:02.476Z,56.82
2018-08-22T00:11:30.692Z,57.14
2018-08-22T00:13:58.812Z,57.30
2018-08-22T00:16:27.004Z,56.99
2018-08-22T00:18:55.214Z,57.04
2018-08-22T00:21:23.370Z,57.37
2018-08-22T00:23:51.627Z,57.36
2018-08-22T00:26:19.825Z,57.42
2018-08-22T00:28:47.995Z,57.81
2018-08-22T00:31:16.213Z,57.98
2018-08-22T00:33:44.317Z,58.04
2018-08-22T00:36:12.455Z,57.85
2018-08-22T00:38:40.637Z,57.93
2018-08-22T00:41:08.800Z,58.35
2018-08-22T00:43:36.937Z,58.12
2018-08-22T00:46:05.146Z,58.58
2018-08-22T00:48:33.289Z,58.41
2018-08-22T00:51:01.489Z,59.18
2018-08-22T00:53:29.685Z,59.13
2018-08-22T00:55:57.924Z,58.99
2018-08-22T00:58:26.101Z,59.17
2018-08-22T01:00:54.286Z,59.39
2018-08-22T01:03:22.460Z,59.42
2018-08-22T01:05:50.583Z,60.17
2018-08-22T01:08:18.783Z,60.36
2018-08-22T01:10:46.924Z,60.15
2018-08-22T01:13:15.051Z,59.86
2018-08-22T01:15:43.228Z,60.75
2018-08-22T01:18:11.377Z,60.68
2018-08-22T01:20:39.522Z,60.66
2018-08-22T01:23:07.703Z,61.66
2018-08-22T01:25:36.005Z,61.50
2018-08-22T01:28:04.379Z,61.48
2018-08-22T01:30:32.486Z,61.22
2018-08-22T01:33:00.703Z,61.63
2018-08-22T01:35:29.028Z,61.64
2018-08-22T01:37:57.200Z,61.66
2018-08-22T01:40:25.389Z,61.97
2018-08-22T01:42:53.570Z,61.58
2018-08-22T01:45:21.761Z,61.65
2018-08-22T01:47:49.969Z,61.49
2018-08-22T01:50:18.186Z,61.98
2018-08-22T01:52:46.329Z,61.50
2018-08-22T01:55:14.452Z,62.02
2018-08-22T01:57:42.607Z,62.13
2018-08-22T02:00:10.713Z,62.19
2018-08-22T02:02:38.867Z,62.87
2018-08-22T02:05:07.011Z,62.92
2018-08-22T02:07:35.232Z,62.98
2018-08-22T02:10:03.493Z,63.20
2018-08-22T02:12:31.677Z,63.74
2018-08-22T02:14:59.919Z,64.15
2018-08-22T02:17:28.123Z,63.72
2018-08-22T02:19:56.446Z,63.55
2018-08-22T02:22:24.718Z,63.43
2018-08-22T02:24:52.970Z,64.64
2018-08-22T02:27:21.212Z,64.21
2018-08-22T02:29:49.419Z,64.43
2018-08-22T02:32:17.603Z,64.46
2018-08-22T02:34:45.788Z,64.90
2018-08-22T02:37:13.998Z,65.10
2018-08-22T02:39:42.389Z,65.68
2018-08-22T02:42:10.533Z,65.49
2018-08-22T02:44:38.691Z,65.66
2018-08-22T02:47:06.921Z,66.29
2018-08-22T02:49:35.062Z,65.70
2018-08-22T02:52:03.219Z,66.48
2018-08-22T02:54:31.381Z,66.57
2018-08-22T02:56:59.503Z,67.25
2018-08-22T02:59:27.740Z,67.30
2018-08-22T03:01:55.871Z,67.74
2018-08-22T03:04:24.065Z,68.29
2018-08-22T03:06:52.183Z,68.59
2018-08-22T03:09:20.355Z,68.29
2018-08-22T03:11:48.531Z,68.23
2018-08-22T03:14:16.700Z,68.46
2018-08-22T03:16:44.876Z,68.31
2018-08-22T03:19:13.056Z,67.79
2018-08-22T03:21:41.259Z,67.98
2018-08-22T03:24:09.930Z,68.26
2018-08-22T03:26:38.065Z,67.95
2018-08-22T03:29:06.320Z,68.30
2018-08-22T03:31:34.463Z,67.82
2018-08-22T03:34:02.653Z,69.05
2018-08-22T03:36:30.983Z,69.20
2018-08-22T03:38:59.128Z,69.23
2018-08-22T03:41:27.445Z,69.69
2018-08-22T03:43:55.588Z,69.34
2018-08-22T03:46:23.847Z,69.72
2018-08-22T03:48:52.058Z,70.46
2018-08-22T03:51:20.232Z,70.03
2018-08-22T03:53:48.378Z,69.76
2018-08-22T03:56:16.533Z,70.58
2018-08-22T03:58:44.696Z,70.70
2018-08-22T04:01:12.818Z,70.37
2018-08-22T04:03:40.950Z,70.65
2018-08-22T04:06:09.093Z,70.37
2018-08-22T04:08:37.374Z,71.26
2018-08-22T04:11:05.648Z,70.23
2018-08-22T04:13:33.832Z,70.37
2018-08-22T04:16:01.988Z,71.14
2018-08-22T04:18:30.338Z,70.81
2018-08-22T04:20:58.606Z,71.04
2018-08-22T04:23:26.758Z,70.54
2018-08-22T04:25:54.989Z,70.89
2018-08-22T04:28:23.182Z,70.41
2018-08-22T04:30:51.338Z,70.66
2018-08-22T04:33:19.566Z,70.55
2018-08-22T04:35:47.788Z,70.54
2018-08-22T04:38:15.944Z,70.50
2018-08-22T04:40:44.084Z,69.94
2018-08-22T04:43:12.218Z,69.84
2018-08-22T04:45:40.340Z,70.43
2018-08-22T04:48:08.517Z,69.75
2018-08-22T04:50:36.666Z,69.31
2018-08-22T04:53:04.884Z,69.35
2018-08-22T04:55:33.029Z,69.95
2018-08-22T04:58:01.212Z,70.08
2018-08-22T05:00:29.398Z,70.02
2018-08-22T05:02:57.548Z,69.48
2018-08-22T05:05:25.703Z,69.56
2018-08-22T05:07:53.850Z,69.88
2018-08-22T05:10:22.002Z,69.64
2018-08-22T05:12:50.215Z,69.27
2018-08-22T05:15:19.040Z,68.31
2018-08-22T05:17:47.180Z,67.18
2018-08-22T05:20:15.384Z,66.85
2018-08-22T05:22:43.566Z,66.62
2018-08-22T05:25:11.736Z,65.44
2018-08-22T05:27:39.948Z,65.35
2018-08-22T05:30:08.262Z,64.92
2018-08-22T05:32:36.461Z,65.38
2018-08-22T05:35:04.802Z,64.42
2018-08-22T05:37:32.958Z,64.47
2018-08-22T05:40:01.142Z,64.85
2018-08-22T05:42:29.278Z,64.81
2018-08-22T05:44:57.430Z,64.07
2018-08-22T05:47:25.566Z,63.62
2018-08-22T05:49:53.694Z,64.62
2018-08-22T05:52:21.860Z,64.33
2018-08-22T05:54:49.958Z,64.30
2018-08-22T05:57:18.191Z,64.45
2018-08-22T05:59:46.338Z,64.40
2018-08-22T06:02:14.578Z,65.46
2018-08-22T06:04:42.760Z,65.47
2018-08-22T06:07:11.201Z,65.08
2018-08-22T06:09:39.378Z,65.02
2018-08-22T06:12:07.542Z,64.19
2018-08-22T06:14:35.694Z,63.85
2018-08-22T06:17:04.034Z,64.75
2018-08-22T06:19:32.233Z,64.36
2018-08-22T06:22:00.578Z,64.11
2018-08-22T06:24:28.728Z,64.50
2018-08-22T06:26:56.972Z,62.83
2018-08-22T06:29:25.262Z,62.75
2018-08-22T06:31:53.441Z,62.92
2018-08-22T06:34:21.718Z,63.14
2018-08-22T06:36:49.916Z,62.97
2018-08-22T06:39:18.112Z,63.30
2018-08-22T06:41:46.271Z,62.13
2018-08-22T06:44:14.494Z,62.21
2018-08-22T06:46:42.633Z,61.66
2018-08-22T06:49:10.848Z,61.46
2018-08-22T06:51:38.968Z,60.44
2018-08-22T06:54:07.156Z,61.20
2018-08-22T06:56:35.412Z,60.50
2018-08-22T06:59:03.577Z,60.03
2018-08-22T07:01:31.702Z,59.29
2018-08-22T07:03:59.834Z,58.83
2018-08-22T07:06:28.082Z,58.86
2018-08-22T07:08:56.248Z,57.53
2018-08-22T07:11:24.459Z,57.91
2018-08-22T07:13:52.663Z,57.34
2018-08-22T07:16:21.023Z,57.59
2018-08-22T07:18:49.183Z,57.06
2018-08-22T07:21:17.386Z,56.92
2018-08-22T07:23:45.585Z,56.16
2018-08-22T07:26:13.707Z,56.32
2018-08-22T07:28:41.932Z,55.68
2018-08-22T07:31:10.129Z,55.14
2018-08-22T07:33:38.295Z,54.70
2018-08-22T07:36:06.408Z,54.72
2018-08-22T07:38:34.540Z,54.42
2018-08-22T07:41:02.699Z,53.65
2018-08-22T07:43:30.849Z,53.67
2018-08-22T07:45:59.008Z,53.14
2018-08-22T07:48:27.252Z,52.78
2018-08-22T07:50:55.467Z,51.26
2018-08-22T07:53:23.697Z,51.13
2018-08-22T07:55:51.912Z,50.39
2018-08-22T07:58:20.087Z,50.83
2018-08-22T08:00:48.234Z,50.38
2018-08-22T08:03:16.438Z,50.11
2018-08-22T08:05:44.600Z,49.83
2018-08-22T08:08:12.862Z,49.80
2018-08-22T08:13:20.694Z,48.23
2018-08-22T08:15:48.910Z,47.94
2018-08-22T08:18:17.096Z,46.83
2018-08-22T08:20:45.249Z,47.21
2018-08-22T08:23:13.948Z,46.97
2018-08-22T08:25:42.128Z,46.49
2018-08-22T08:28:10.285Z,46.75
2018-08-22T08:30:38.481Z,46.55
2018-08-22T08:33:06.686Z,46.45
2018-08-22T08:35:34.843Z,45.36
2018-08-22T08:38:02.973Z,44.66
2018-08-22T08:40:31.138Z,44.68
2018-08-22T08:42:59.284Z,44.43
2018-08-22T08:45:27.444Z,44.68
2018-08-22T08:47:55.665Z,43.08
2018-08-22T08:50:23.924Z,43.85
2018-08-22T08:52:52.093Z,41.52
2018-08-22T08:55:20.286Z,42.27
2018-08-22T08:57:48.462Z,41.12
2018-08-22T09:00:16.606Z,40.93
2018-08-22T09:02:45.354Z,41.09
2018-08-22T09:05:13.551Z,40.87
2018-08-22T09:07:41.740Z,40.35
2018-08-22T09:10:10.026Z,40.13
2018-08-22T09:12:38.757Z,40.22
2018-08-22T09:15:07.496Z,39.60
2018-08-22T09:17:35.719Z,39.88
2018-08-22T09:20:04.012Z,39.51
2018-08-22T09:22:32.184Z,40.10
2018-08-22T09:25:00.525Z,40.62
2018-08-22T09:27:28.676Z,40.19
2018-08-22T09:29:56.904Z,40.97
2018-08-22T09:32:25.237Z,41.21
2018-08-22T09:34:53.419Z,41.92
2018-08-22T09:37:21.572Z,41.05
2018-08-22T09:39:49.879Z,41.21
2018-08-22T09:42:18.044Z,40.66
2018-08-22T09:44:46.186Z,40.99
2018-08-22T09:47:14.332Z,40.88
2018-08-22T09:49:42.560Z,40.97
2018-08-22T09:52:11.206Z,41.33
2018-08-22T09:54:55.642Z,40.48
2018-08-22T09:57:25.042Z,40.42
2018-08-22T09:59:53.275Z,39.91
2018-08-22T10:02:21.412Z,39.15
2018-08-22T10:04:49.579Z,39.24
2018-08-22T10:07:17.965Z,39.51
2018-08-22T10:09:46.080Z,39.10
2018-08-22T10:12:14.283Z,39.51
2018-08-22T10:14:42.503Z,39.94
2018-08-22T10:17:10.983Z,39.38
2018-08-22T10:19:39.241Z,39.08
2018-08-22T10:22:07.401Z,38.99
2018-08-22T10:24:35.635Z,38.96
2018-08-22T10:27:03.888Z,39.52
2018-08-22T10:29:32.095Z,38.56
2018-08-22T10:32:00.258Z,38.17
2018-08-22T10:34:28.547Z,38.58
2018-08-22T10:36:56.751Z,39.30
2018-08-22T10:39:24.988Z,38.61
2018-08-22T10:41:53.251Z,38.69
2018-08-22T10:44:21.414Z,39.18
2018-08-22T10:46:49.725Z,38.21
2018-08-22T10:49:17.901Z,38.55
2018-08-22T10:51:46.090Z,39.18
2018-08-22T10:54:14.322Z,39.22
2018-08-22T10:56:42.647Z,38.02
2018-08-22T10:59:10.849Z,36.28
2018-08-22T11:01:39.052Z,35.96
2018-08-22T11:04:07.263Z,35.35
2018-08-22T11:06:35.434Z,36.22
2018-08-22T11:09:04.676Z,36.93
2018-08-22T11:11:32.967Z,36.18
2018-08-22T11:14:01.118Z,36.74
2018-08-22T11:16:29.350Z,36.67
2018-08-22T11:18:57.534Z,35.97
2018-08-22T11:21:37.244Z,35.75
2018-08-22T11:24:16.736Z,36.21
2018-08-22T11:26:56.216Z,36.19
2018-08-22T11:29:35.634Z,33.48
2018-08-22T11:32:15.110Z,33.75
2018-08-22T11:34:46.618Z,34.16
2018-08-22T11:37:15.948Z,34.47
2018-08-22T11:39:45.313Z,35.07
2018-08-22T11:42:13.528Z,34.51
2018-08-22T11:44:41.772Z,34.80
2018-08-22T11:47:09.976Z,34.88
2018-08-22T11:49:38.296Z,34.94
2018-08-22T11:52:06.554Z,34.08
2018-08-22T11:54:34.873Z,34.26
2018-08-22T11:57:03.533Z,34.68
2018-08-22T11:59:31.963Z,34.43
2018-08-22T12:02:00.230Z,34.58
2018-08-22T12:04:28.367Z,34.35
2018-08-22T12:06:56.518Z,33.79
2018-08-22T12:09:24.710Z,33.41
2018-08-22T12:11:52.927Z,33.47
2018-08-22T12:14:21.120Z,33.74
2018-08-22T12:16:49.312Z,33.80
2018-08-22T12:19:17.523Z,34.64
2018-08-22T12:21:46.748Z,33.70
2018-08-22T12:24:15.072Z,34.13
2018-08-22T12:26:43.300Z,33.96
2018-08-22T12:29:11.534Z,33.57
2018-08-22T12:31:39.790Z,34.39
2018-08-22T12:46:20.882Z,100.00
2018-08-22T12:48:49.067Z,33.50
2018-08-22T12:51:17.269Z,33.61
2018-08-22T13:01:19.787Z,100.00
2018-08-22T13:15:38.449Z,100.00
2018-08-22T13:18:06.638Z,32.85
2018-08-22T13:20:34.772Z,33.33
2018-08-22T13:23:02.964Z,32.85
2018-08-22T13:25:31.118Z,33.42
2018-08-22T13:27:59.236Z,32.79
2018-08-22T13:30:27.429Z,32.57
2018-08-22T13:32:55.729Z,32.94
2018-08-22T13:35:24.025Z,33.68
2018-08-22T13:37:52.234Z,33.63
2018-08-22T13:40:20.467Z,33.66
2018-08-22T13:42:53.472Z,33.74
2018-08-22T13:45:21.676Z,32.96
2018-08-22T13:47:50.482Z,32.92
2018-08-22T13:50:18.680Z,33.28
2018-08-22T13:52:46.832Z,33.65
2018-08-22T13:55:14.991Z,33.34
2018-08-22T13:57:43.331Z,33.69
2018-08-22T14:00:11.526Z,33.44
2018-08-22T14:02:39.774Z,32.88
2018-08-22T14:05:07.970Z,32.79
2018-08-22T14:07:36.382Z,32.47
2018-08-22T14:10:04.667Z,33.11
2018-08-22T14:12:32.873Z,32.41
2018-08-22T14:15:01.012Z,32.42
2018-08-22T14:17:29.149Z,32.95
2018-08-22T14:19:57.327Z,32.22
2018-08-22T14:22:25.481Z,32.28
2018-08-22T14:24:53.779Z,32.86
2018-08-22T14:27:21.930Z,31.86
2018-08-22T14:29:50.222Z,32.10
2018-08-22T14:32:18.457Z,32.08
2018-08-22T14:34:46.867Z,32.48
2018-08-22T14:37:15.013Z,31.79
2018-08-22T14:39:43.252Z,32.06
2018-08-22T14:42:11.540Z,32.23
2018-08-22T14:44:39.693Z,32.18
2018-08-22T14:47:07.939Z,31.89
2018-08-22T14:49:36.203Z,32.32
2018-08-22T14:52:04.434Z,32.06
2018-08-22T14:54:32.785Z,32.56
2018-08-22T14:57:00.966Z,32.31
2018-08-22T14:59:29.108Z,33.53
2018-08-22T15:01:57.366Z,32.67
2018-08-22T15:04:25.516Z,33.22
2018-08-22T15:06:53.697Z,32.65
2018-08-22T15:09:21.934Z,33.61
2018-08-22T15:11:50.087Z,32.94
2018-08-22T15:14:18.344Z,33.02
2018-08-22T15:16:46.673Z,32.80
2018-08-22T15:19:15.028Z,33.08
2018-08-22T15:21:43.136Z,32.83
2018-08-22T15:24:11.934Z,33.39
2018-08-22T15:26:40.248Z,33.13
2018-08-22T15:29:08.463Z,32.43
2018-08-22T15:31:36.703Z,32.07
2018-08-22T15:34:04.868Z,32.73
2018-08-22T15:36:35.078Z,31.86
2018-08-22T15:39:03.376Z,32.95
2018-08-22T15:41:31.538Z,33.33
2018-08-22T15:43:59.853Z,33.60
2018-08-22T15:46:28.130Z,34.06
2018-08-22T15:48:56.296Z,33.44
2018-08-22T15:51:24.481Z,33.87
2018-08-22T15:54:07.669Z,33.64
2018-08-22T15:56:37.257Z,33.39
2018-08-22T15:59:05.496Z,33.12
2018-08-22T16:01:33.784Z,33.25
2018-08-22T16:04:01.954Z,33.42
2018-08-22T16:06:30.135Z,33.52
2018-08-22T16:08:58.317Z,34.21
2018-08-22T16:11:26.529Z,34.89
2018-08-22T16:13:54.748Z,33.72
2018-08-22T16:16:22.870Z,33.49
2018-08-22T16:18:51.027Z,33.35
2018-08-22T16:21:19.218Z,33.44
2018-08-22T16:23:47.394Z,33.96
2018-08-22T16:26:15.624Z,34.55
2018-08-22T16:28:53.971Z,34.78
2018-08-22T16:31:24.713Z,34.94
2018-08-22T16:33:52.855Z,34.56
2018-08-22T16:36:26.012Z,35.23
2018-08-22T16:38:54.299Z,35.22
2018-08-22T16:41:22.496Z,34.69
2018-08-22T16:43:50.663Z,35.54
2018-08-22T16:46:18.998Z,36.03
2018-08-22T16:48:50.133Z,34.50
2018-08-22T16:51:18.449Z,35.42
2018-08-22T16:54:01.108Z,35.20
2018-08-22T16:56:30.812Z,34.67
2018-08-22T16:59:04.244Z,35.26
2018-08-22T17:01:32.581Z,34.75
2018-08-22T17:04:00.725Z,35.85
2018-08-22T17:06:28.898Z,36.06
2018-08-22T17:08:57.699Z,36.28
2018-08-22T17:11:25.863Z,35.90
2018-08-22T17:13:54.385Z,34.97
2018-08-22T17:16:23.475Z,34.96
2018-08-22T17:18:51.666Z,36.59
2018-08-22T17:21:19.792Z,36.55
2018-08-22T17:23:48.404Z,36.42
2018-08-22T17:26:18.749Z,35.43
2018-08-22T17:28:48.844Z,36.54
2018-08-22T17:31:17.633Z,36.20
2018-08-22T17:33:49.819Z,36.27
2018-08-22T17:36:18.138Z,36.23
2018-08-22T17:38:48.306Z,36.83
2018-08-22T17:41:17.100Z,37.56
2018-08-22T17:43:59.497Z,37.55
2018-08-22T17:46:29.463Z,37.45
2018-08-22T17:48:57.914Z,36.75
2018-08-22T17:51:26.059Z,36.88
2018-08-22T17:53:54.190Z,37.04
2018-08-22T17:56:23.667Z,37.14
2018-08-22T17:58:52.863Z,37.49
2018-08-22T18:01:21.555Z,38.77
2018-08-22T18:03:49.803Z,39.03
2018-08-22T18:06:18.068Z,39.21
2018-08-22T18:08:46.277Z,39.51
2018-08-22T18:11:15.053Z,38.76
2018-08-22T18:13:43.282Z,39.46
2018-08-22T18:16:11.431Z,39.13
2018-08-22T18:18:39.739Z,39.29
2018-08-22T18:21:07.884Z,39.27
2018-08-22T18:23:38.049Z,40.24
2018-08-22T18:26:06.346Z,40.85
2018-08-22T18:28:34.560Z,41.36
2018-08-22T18:31:02.797Z,41.84
2018-08-22T18:33:31.007Z,40.99
2018-08-22T18:35:59.231Z,41.83
2018-08-22T18:38:27.490Z,41.42
2018-08-22T18:41:06.485Z,42.73
2018-08-22T18:43:34.716Z,42.72
2018-08-22T18:46:06.923Z,41.64
2018-08-22T18:48:36.819Z,42.17
2018-08-22T18:51:05.188Z,43.03
2018-08-22T18:53:33.449Z,42.85
2018-08-22T18:56:13.600Z,42.77
2018-08-22T18:58:41.765Z,42.79
2018-08-22T19:01:10.047Z,43.62
2018-08-22T19:03:38.239Z,44.08
2018-08-22T19:06:06.697Z,43.41
2018-08-22T19:08:35.897Z,43.59
2018-08-22T19:11:04.150Z,43.43
2018-08-22T19:13:32.324Z,44.11
2018-08-22T19:16:07.755Z,43.90
2018-08-22T19:18:36.349Z,44.01
2018-08-22T19:21:05.812Z,44.14
2018-08-22T19:23:34.136Z,44.43
2018-08-22T19:26:03.477Z,44.73
2018-08-22T19:28:33.818Z,44.76
2018-08-22T19:31:02.000Z,44.91
2018-08-22T19:33:30.282Z,45.46
2018-08-22T19:35:59.088Z,100.00
2018-08-22T19:38:28.406Z,100.00
2018-08-22T19:40:57.446Z,100.00
2018-08-22T19:43:25.942Z,100.00
2018-08-22T19:45:54.230Z,100.00
2018-08-22T19:48:24.042Z,100.00
2018-08-22T19:50:52.566Z,100.00
